| Date | Time | Temp. (oF) | Dew Point (oF) | Rel. Hum. (%) | Press. (in.) | Wind Dir. | Wind Speed (mph) | Hourly Rainfall (in.) |
|
|---|---|---|---|---|---|---|---|---|---|
| 1 | 05/07 | 00:00 | 56 | 55 | 100 | 29.83 | SSW | 4 | 0.00 |
| 2 | 05/06 | 23:00 | 55 | 54 | 100 | 29.86 | ESE | 6 | 0.05 |
| 3 | 05/06 | 22:00 | 56 | 55 | 99 | 29.89 | SSW | 2 | 0.05 |
| 4 | 05/06 | 21:00 | 58 | 56 | 96 | 29.92 | SE | 9 | 0.01 |
| 5 | 05/06 | 20:00 | 59 | 57 | 94 | 29.92 | SE | 9 | 0.01 |
| 6 | 05/06 | 19:00 | 61 | 58 | 90 | 29.94 | SE | 6 | 0.00 |
| 7 | 05/06 | 18:00 | 62 | 57 | 85 | 29.97 | SE | 3 | 0.00 |
| 8 | 05/06 | 17:00 | 62 | 56 | 83 | 29.98 | S | 4 | 0.00 |
| 9 | 05/06 | 16:00 | 65 | 59 | 81 | 29.98 | S | 7 | 0.00 |
| 10 | 05/06 | 15:00 | 64 | 58 | 82 | 30.01 | S | 6 | 0.00 |
| 11 | 05/06 | 14:00 | 63 | 58 | 84 | 30.04 | ESE | 5 | 0.00 |
| 12 | 05/06 | 13:00 | 62 | 58 | 89 | 30.06 | ESE | 4 | 0.00 |
| 13 | 05/06 | 12:00 | 60 | 57 | 92 | 30.07 | SSE | 3 | 0.00 |
| 14 | 05/06 | 11:00 | 59 | 58 | 98 | 30.08 | SSW | 3 | 0.00 |
| 15 | 05/06 | 10:00 | 55 | 54 | 100 | 30.09 | SSW | 3 | 0.00 |
| 16 | 05/06 | 09:00 | 54 | 54 | 100 | 30.08 | S | 3 | 0.00 |
| 17 | 05/06 | 08:00 | 54 | 54 | 100 | 30.08 | S | 2 | 0.00 |
| 18 | 05/06 | 07:00 | 53 | 53 | 100 | 30.06 | SSW | 2 | 0.00 |
| 19 | 05/06 | 06:00 | 53 | 53 | 100 | 30.04 | ESE | 3 | 0.00 |
| 20 | 05/06 | 05:00 | 53 | 53 | 100 | 30.03 | ESE | 1 | 0.00 |
| 21 | 05/06 | 04:00 | 53 | 53 | 100 | 30.02 | ENE | 2 | 0.00 |
| 22 | 05/06 | 03:00 | 53 | 53 | 100 | 30.02 | ENE | 4 | 0.00 |
| 23 | 05/06 | 02:00 | 53 | 53 | 100 | 30.03 | ENE | 2 | 0.00 |
| 24 | 05/06 | 01:00 | 53 | 53 | 100 | 30.05 | NE | 3 | 0.05 |